Aviation Digital Data Service (ADDS)

Output produced by METARs form (1240 UTC 16 July 2019)
found at http://www.aviationweather.gov/metar/data/
 
Forecast for: VOMY (MYSORE , IN)
Text: TAF VOMY 160800Z 1609/1618 27010KT 6000 SCT012 SCT018
Forecast period: 0900 to 1800 UTC 16 July 2019
Forecast type: FROM: standard forecast or significant change
Winds: from the W (270 degrees) at 12 MPH (10 knots; 5.1 m/s)
Visibility: 4 miles (6 km)
Ceiling: at least 12,000 feet AGL
Clouds: scattered clouds at 1200 feet AGL
scattered clouds at 1800 feet AGL
Weather: no significant weather forecast for this period
Text: TEMPO 1609/1615 4000 RA DZ SCT012 SCT018 FEW025CB BKN080
Forecast period: 0900 to 1500 UTC 16 July 2019
Forecast type: TEMPORARY: The following changes expected for less than half the time period
Visibility: 2.49 miles (4.01 km)
Ceiling: at least 12,000 feet AGL
Clouds: scattered clouds at 1200 feet AGL
scattered clouds at 1800 feet AGL
few clouds at 2500 feet AGL
Weather: RA DZ  (moderate rain, moderate drizzle)